Time;durP1;ratioP1;P1;durP2;ratioP2;P2;SDS_P1;SDS_P2;PMS_P1;PMS_P2;Temp;Humidity;BMP_temperature;BMP_pressure;BME280_temperature;BME280_humidity;BME280_pressure;Samples;Min_cycle;Max_cycle;Signal;HPM_P1;HPM_P2
2023/08/02 04:09:44;;;;;;;6.50;4.25;;;;;;;18.77;94.40;99771.25;5608181;31;75556;-61
2023/08/02 04:12:53;;;;;;;6.65;3.70;;;;;;;18.77;94.40;99771.25;5599751;31;33139;-61
2023/08/02 04:15:55;;;;;;;6.55;4.00;;;;;;;18.38;95.73;99773.72;5621018;31;33597;-61
2023/08/02 04:18:57;;;;;;;6.75;3.83;;;;;;;18.38;95.49;99770.22;5623579;31;33655;-61
2023/08/02 04:22:00;;;;;;;6.50;3.95;;;;;;;18.42;100.00;99780.03;5623475;31;33822;-61
2023/08/02 04:25:03;;;;;;;5.32;3.72;;;;;;;18.48;99.80;99788.72;5622399;31;33545;-61
2023/08/02 04:28:06;;;;;;;5.75;3.47;;;;;;;18.61;96.13;99795.66;5594287;31;33121;-61
2023/08/02 04:31:08;;;;;;;11.77;4.32;;;;;;;18.60;94.03;99799.47;5603820;31;34331;-61
2023/08/02 04:34:10;;;;;;;6.40;3.83;;;;;;;18.64;100.00;99805.00;5603544;31;33902;-61
2023/08/02 04:37:13;;;;;;;5.93;3.75;;;;;;;18.64;100.00;99797.66;5618672;31;33593;-61
2023/08/02 04:40:15;;;;;;;6.82;3.85;;;;;;;18.64;100.00;99794.13;5623340;31;33589;-61
2023/08/02 04:43:18;;;;;;;5.93;4.18;;;;;;;18.53;100.00;99796.59;5623416;31;34269;-61
2023/08/02 04:46:21;;;;;;;6.07;3.62;;;;;;;18.63;100.00;99798.00;5607313;31;34288;-61
2023/08/02 04:49:24;;;;;;;6.78;3.87;;;;;;;18.70;100.00;99798.97;5617377;31;33606;-61
2023/08/02 04:52:26;;;;;;;5.40;3.55;;;;;;;18.54;100.00;99793.53;5623178;31;33642;-61
2023/08/02 04:55:28;;;;;;;6.25;4.00;;;;;;;18.55;100.00;99792.38;5623201;31;33775;-62
2023/08/02 04:58:31;;;;;;;7.10;4.30;;;;;;;18.67;100.00;99793.44;5622765;31;33588;-61
2023/08/02 05:01:33;;;;;;;5.40;3.47;;;;;;;18.78;100.00;99783.69;5616816;31;33534;-61
2023/08/02 05:04:35;;;;;;;5.57;3.95;;;;;;;18.89;96.67;99776.59;5603092;31;33705;-61
2023/08/02 05:07:39;;;;;;;6.12;4.03;;;;;;;18.99;97.55;99786.94;5604443;31;34205;-61
2023/08/02 05:10:42;;;;;;;5.82;4.07;;;;;;;19.05;100.00;99798.31;5622827;31;33638;-62
2023/08/02 05:13:45;;;;;;;7.00;4.05;;;;;;;19.29;100.00;99791.91;5622938;31;33561;-61
2023/08/02 05:16:47;;;;;;;4.87;3.62;;;;;;;19.26;97.21;99787.16;5623123;31;33546;-61
2023/08/02 05:19:52;;;;;;;8.70;3.60;;;;;;;19.33;93.36;99792.75;5598758;31;33668;-61
2023/08/02 05:22:54;;;;;;;5.72;3.65;;;;;;;19.32;100.00;99790.41;5590087;31;33786;-61
2023/08/02 05:26:03;;;;;;;12.95;4.20;;;;;;;19.34;100.00;99796.28;5589941;31;33576;-61
2023/08/02 05:29:05;;;;;;;7.40;4.15;;;;;;;19.43;99.24;99794.16;5584751;31;34301;-61
2023/08/02 05:32:07;;;;;;;23.27;20.27;;;;;;;19.56;91.79;99797.56;5590508;31;33882;-61
2023/08/02 05:35:10;;;;;;;12.10;7.18;;;;;;;19.77;100.00;99800.78;5589568;31;33691;-61
2023/08/02 05:38:12;;;;;;;10.07;3.65;;;;;;;19.94;93.35;99810.47;5594360;31;33842;-61
2023/08/02 05:41:14;;;;;;;10.25;3.33;;;;;;;20.10;91.53;99797.59;5609284;31;34347;-61
2023/08/02 05:44:17;;;;;;;6.75;3.22;;;;;;;20.22;88.96;99804.78;5609454;31;33548;-62
2023/08/02 05:47:19;;;;;;;11.32;3.37;;;;;;;20.40;91.08;99803.22;5609464;31;33567;-62
2023/08/02 05:50:21;;;;;;;8.48;3.22;;;;;;;20.64;92.43;99807.56;5608769;31;33679;-61
2023/08/02 05:53:23;;;;;;;1999.90;999.90;;;;;;;20.74;91.12;99798.03;5609411;31;34370;-61
2023/08/02 05:56:26;;;;;;;1999.90;999.90;;;;;;;20.83;85.44;99803.25;5609203;31;33566;-62
2023/08/02 05:59:28;;;;;;;80.68;12.65;;;;;;;20.96;94.98;99801.91;5596144;31;33707;-61
2023/08/02 06:02:31;;;;;;;15.60;4.15;;;;;;;21.15;97.14;99805.69;5589650;31;33584;-62
2023/08/02 06:05:33;;;;;;;1958.95;285.05;;;;;;;21.25;86.06;99802.34;5589467;31;33565;-61
2023/08/02 06:08:36;;;;;;;1287.60;169.98;;;;;;;21.21;90.96;99807.75;5595732;31;33194;-62
2023/08/02 06:11:39;;;;;;;651.67;95.32;;;;;;;21.40;84.83;99809.63;5608847;31;33745;-61
2023/08/02 06:14:41;;;;;;;785.60;116.65;;;;;;;21.46;83.26;99816.34;5608775;31;33856;-62
2023/08/02 06:17:44;;;;;;;311.80;37.35;;;;;;;21.52;87.19;99814.06;5597107;31;33737;-62
2023/08/02 06:20:46;;;;;;;121.72;38.90;;;;;;;21.84;91.18;99811.00;5589405;31;33841;-63
2023/08/02 06:23:49;;;;;;;180.55;39.33;;;;;;;21.80;83.65;99824.59;5589073;31;33603;-64
2023/08/02 06:26:52;;;;;;;248.87;31.35;;;;;;;21.73;83.55;99821.78;5589319;31;34147;-65
2023/08/02 06:29:55;;;;;;;878.30;126.15;;;;;;;21.65;79.57;99823.59;5603649;31;34263;-65
2023/08/02 06:32:57;;;;;;;45.95;7.40;;;;;;;21.62;78.63;99824.34;5608135;31;33832;-64
2023/08/02 06:36:00;;;;;;;7.05;3.03;;;;;;;21.53;76.83;99827.34;5608833;31;33587;-63
2023/08/02 06:39:02;;;;;;;71.60;11.93;;;;;;;21.58;80.78;99832.47;5599238;31;34267;-64
2023/08/02 06:42:06;;;;;;;23.23;5.28;;;;;;;21.51;85.74;99837.03;5587678;31;33548;-65
2023/08/02 06:45:08;;;;;;;43.45;8.80;;;;;;;21.52;79.19;99831.25;5588895;31;34280;-65
2023/08/02 06:48:11;;;;;;;34.90;5.65;;;;;;;21.53;77.94;99843.72;5590898;31;34469;-65
2023/08/02 06:51:13;;;;;;;25.37;5.55;;;;;;;21.61;78.84;99841.09;5607748;31;33635;-65
2023/08/02 06:54:15;;;;;;;7.30;2.90;;;;;;;21.65;79.40;99847.38;5608708;31;34370;-65
2023/08/02 06:57:18;;;;;;;37.78;9.00;;;;;;;21.71;77.80;99843.97;5608712;31;34280;-65
2023/08/02 07:00:20;;;;;;;14.32;4.45;;;;;;;21.75;81.95;99835.81;5591373;31;33547;-65
2023/08/02 07:03:23;;;;;;;13.52;4.28;;;;;;;21.87;79.75;99832.87;5588410;31;33952;-64
2023/08/02 07:06:26;;;;;;;28.75;6.40;;;;;;;21.93;79.52;99836.88;5588892;31;33533;-65
2023/08/02 07:09:29;;;;;;;25.62;5.97;;;;;;;22.01;80.61;99835.78;5588494;31;33679;-65
2023/08/02 07:12:32;;;;;;;26.30;5.47;;;;;;;22.05;80.08;99839.38;5588470;31;33202;-65
2023/08/02 07:15:34;;;;;;;15.35;3.15;;;;;;;22.14;79.20;99850.00;5588135;31;33713;-65
2023/08/02 07:18:37;;;;;;;29.55;6.95;;;;;;;22.10;78.08;99849.16;5602039;31;31926;-65
2023/08/02 07:21:39;;;;;;;5.78;2.85;;;;;;;22.09;77.70;99855.78;5607748;31;34185;-65
2023/08/02 07:24:43;;;;;;;7.60;5.20;;;;;;;22.04;73.97;99859.62;5608248;31;33533;-66
2023/08/02 07:27:46;;;;;;;6.18;3.25;;;;;;;21.98;73.89;99852.91;5603551;31;33572;-65
2023/08/02 07:30:48;;;;;;;7.70;3.03;;;;;;;22.08;74.36;99856.16;5601432;31;34303;-65
2023/08/02 07:33:51;;;;;;;8.15;3.37;;;;;;;22.10;73.64;99842.94;5590052;31;33588;-62
2023/08/02 07:36:53;;;;;;;53.22;9.73;;;;;;;22.17;74.41;99843.03;5588209;31;34355;-62
2023/08/02 07:39:56;;;;;;;31.52;7.85;;;;;;;22.30;75.17;99849.84;5595456;31;34325;-62
2023/08/02 07:42:58;;;;;;;4.85;2.87;;;;;;;22.44;76.81;99849.97;5605967;31;33647;-62
2023/08/02 07:46:01;;;;;;;7.80;3.12;;;;;;;22.49;72.68;99849.66;5607457;31;33583;-62
2023/08/02 07:49:03;;;;;;;4.60;2.50;;;;;;;22.55;72.80;99857.50;5606249;31;33691;-62
2023/08/02 07:52:06;;;;;;;5.50;2.50;;;;;;;22.62;70.01;99857.63;5607995;31;33708;-62
2023/08/02 07:55:08;;;;;;;6.78;2.70;;;;;;;22.55;68.73;99849.31;5608041;31;33708;-62
2023/08/02 07:58:10;;;;;;;8.32;2.80;;;;;;;22.60;72.19;99854.47;5607709;31;33694;-62
2023/08/02 08:01:13;;;;;;;5.43;3.12;;;;;;;22.71;72.42;99863.53;5590254;31;34324;-62
2023/08/02 08:04:15;;;;;;;7.55;2.80;;;;;;;22.78;71.39;99854.63;5588946;31;34369;-62
2023/08/02 08:07:18;;;;;;;27.23;7.68;;;;;;;22.82;70.68;99853.53;5606280;31;32229;-62
2023/08/02 08:10:20;;;;;;;9.63;3.37;;;;;;;22.66;73.81;99847.50;5586727;31;33698;-62
2023/08/02 08:13:22;;;;;;;12.15;4.07;;;;;;;22.79;69.88;99862.47;5600164;31;33691;-62
2023/08/02 08:16:25;;;;;;;12.27;4.82;;;;;;;22.90;68.66;99846.16;5598006;31;33584;-62
2023/08/02 08:19:28;;;;;;;3.75;1.90;;;;;;;22.89;65.85;99837.19;5587516;31;33676;-62
2023/08/02 08:22:30;;;;;;;4.47;2.15;;;;;;;22.77;62.91;99845.66;5587439;31;33538;-62
2023/08/02 08:25:33;;;;;;;77.37;6.82;;;;;;;22.86;63.43;99843.41;5587808;31;33797;-62
2023/08/02 08:28:35;;;;;;;1981.38;260.48;;;;;;;22.90;60.94;99840.69;5592666;31;33694;-62
2023/08/02 08:31:38;;;;;;;946.33;121.70;;;;;;;22.97;61.72;99832.59;5597068;31;35041;-62
2023/08/02 08:34:44;;;;;;;326.55;44.08;;;;;;;23.21;65.41;99840.25;5600655;31;33871;-62
2023/08/02 08:37:49;;;;;;;6.03;2.10;;;;;;;23.29;64.05;99843.81;5607204;31;34222;-62
2023/08/02 08:40:53;;;;;;;7.55;1.73;;;;;;;23.21;62.74;99842.97;5607362;31;34391;-62
2023/08/02 08:43:55;;;;;;;6.37;2.50;;;;;;;23.14;59.15;99836.62;5600777;31;33672;-65
2023/08/02 08:47:02;;;;;;;12.00;2.87;;;;;;;23.16;59.65;99842.53;5589031;31;34232;-65
2023/08/02 08:50:08;;;;;;;10.90;2.65;;;;;;;23.21;60.51;99848.44;5587125;31;34345;-65
2023/08/02 08:53:17;;;;;;;30.08;5.93;;;;;;;23.26;58.86;99844.56;5587253;31;34240;-63
2023/08/02 08:56:24;;;;;;;2.40;1.50;;;;;;;23.32;59.51;99845.78;5588352;31;32209;-65
2023/08/02 08:59:26;;;;;;;4.25;2.20;;;;;;;23.35;58.04;99847.75;5589571;31;33698;-65
2023/08/02 09:02:31;;;;;;;42.67;7.80;;;;;;;23.41;56.91;99864.59;5589792;31;33714;-65
2023/08/02 09:05:34;;;;;;;6.32;1.60;;;;;;;23.43;57.71;99854.06;5589735;31;33651;-65
2023/08/02 09:08:47;;;;;;;16.25;2.85;;;;;;;23.53;58.09;99847.09;5589288;31;33689;-65
2023/08/02 09:11:49;;;;;;;9.02;2.30;;;;;;;23.65;56.54;99839.38;5587733;31;33628;-65
2023/08/02 09:15:00;;;;;;;41.25;7.30;;;;;;;23.68;55.88;99843.31;5596125;31;33751;-64
2023/08/02 09:18:03;;;;;;;169.37;22.13;;;;;;;23.75;60.50;99837.09;5568634;32;33720;-65
2023/08/02 09:21:06;;;;;;;63.70;10.98;;;;;;;23.81;60.96;99836.38;5582448;31;34376;-65
2023/08/02 09:24:08;;;;;;;12.13;2.10;;;;;;;23.90;61.19;99828.56;5591000;31;34398;-65
2023/08/02 09:27:16;;;;;;;4.18;1.98;;;;;;;23.91;55.60;99837.59;5609457;31;34205;-65
2023/08/02 09:30:23;;;;;;;18.73;4.72;;;;;;;23.95;56.96;99843.09;5609410;31;34328;-65
2023/08/02 09:33:25;;;;;;;6.28;1.90;;;;;;;23.95;58.12;99837.59;5609341;31;33378;-65
2023/08/02 09:36:29;;;;;;;35.28;7.55;;;;;;;24.00;58.37;99829.78;5608957;31;34319;-65
2023/08/02 09:39:31;;;;;;;44.40;8.10;;;;;;;24.02;58.86;99819.25;5608975;31;33713;-66
2023/08/02 09:42:34;;;;;;;8.95;2.42;;;;;;;24.08;59.44;99834.16;5598028;31;33663;-65
2023/08/02 09:45:36;;;;;;;5.55;2.62;;;;;;;24.13;55.95;99827.50;5608584;31;33849;-65
2023/08/02 09:48:39;;;;;;;4.35;2.00;;;;;;;24.14;55.57;99829.09;5600738;31;33386;-65
2023/08/02 09:51:43;;;;;;;34.10;7.25;;;;;;;24.20;55.12;99832.22;5607494;31;33195;-62
2023/08/02 09:54:45;;;;;;;4.22;2.05;;;;;;;24.22;57.19;99838.88;5605601;31;33300;-62
2023/08/02 09:57:49;;;;;;;5.35;1.60;;;;;;;24.32;52.76;99842.84;5592897;31;34243;-63
2023/08/02 10:00:52;;;;;;;8.80;2.20;;;;;;;24.39;53.24;99837.38;5593379;31;33691;-62
2023/08/02 10:03:58;;;;;;;20.30;4.05;;;;;;;24.48;52.65;99837.84;5598785;31;33651;-62
2023/08/02 10:07:08;;;;;;;7.90;1.98;;;;;;;24.61;53.94;99835.53;5589181;31;33782;-61
2023/08/02 10:10:24;;;;;;;33.55;8.02;;;;;;;24.57;51.37;99840.22;5601219;31;33637;-62
2023/08/02 10:13:32;;;;;;;2.15;1.58;;;;;;;24.59;52.43;99846.84;5588977;31;34137;-62
2023/08/02 10:16:37;;;;;;;2.45;1.58;;;;;;;24.57;49.66;99840.22;5608284;31;33611;-62
2023/08/02 10:19:40;;;;;;;4.72;1.90;;;;;;;24.57;49.89;99838.25;5608861;31;33629;-61
2023/08/02 10:22:44;;;;;;;13.43;3.90;;;;;;;24.58;50.23;99836.28;5605217;31;34102;-62
2023/08/02 10:25:47;;;;;;;5.95;2.03;;;;;;;24.54;51.56;99825.31;5598527;31;34303;-62
2023/08/02 10:28:51;;;;;;;10.63;3.33;;;;;;;24.54;52.78;99830.03;5600106;31;33601;-63
2023/08/02 10:31:54;;;;;;;4.05;1.98;;;;;;;24.71;53.62;99821.06;5592131;31;33749;-63
2023/08/02 10:34:56;;;;;;;3.42;2.33;;;;;;;24.75;49.71;99813.59;5589068;31;34348;-62
2023/08/02 10:37:58;;;;;;;2.97;1.80;;;;;;;24.80;49.48;99817.91;5588668;31;33825;-62
2023/08/02 10:41:12;;;;;;;2.53;1.75;;;;;;;24.77;48.34;99818.72;5589152;31;34332;-62
2023/08/02 10:44:14;;;;;;;12.45;3.45;;;;;;;24.78;51.27;99818.31;5588923;31;33687;-61
2023/08/02 10:47:24;;;;;;;40.78;6.95;;;;;;;24.85;51.13;99817.53;5589216;31;33754;-61
2023/08/02 10:50:46;;;;;;;4.07;1.70;;;;;;;24.92;52.58;99812.06;5588923;31;34448;-61
2023/08/02 10:54:23;;;;;;;3.47;1.87;;;;;;;24.91;48.57;99815.19;5589201;31;35291;-62
2023/08/02 10:57:25;;;;;;;5.43;2.00;;;;;;;24.95;48.02;99805.00;5589096;31;33655;-61
2023/08/02 11:00:29;;;;;;;3.78;1.80;;;;;;;24.98;47.40;99801.50;5588976;31;34194;-62
2023/08/02 11:03:35;;;;;;;2.95;1.50;;;;;;;24.85;47.34;99790.91;5582297;31;33536;-62
2023/08/02 11:06:38;;;;;;;4.95;1.90;;;;;;;24.87;45.84;99789.72;5589926;31;33911;-63
2023/08/02 11:09:41;;;;;;;2.97;1.70;;;;;;;24.92;45.13;99789.34;5586688;31;33798;-61
2023/08/02 11:12:52;;;;;;;3.05;1.80;;;;;;;24.96;45.55;99785.41;5582584;31;33617;-61
2023/08/02 11:16:04;;;;;;;4.22;2.00;;;;;;;25.01;45.24;99784.25;5578912;31;34339;-61
